createdAt,value
2024-01-19T00:00:49.048Z,78.52
2024-01-19T00:03:16.833Z,78.54
2024-01-19T00:05:45.855Z,78.61
2024-01-19T00:08:13.902Z,78.41
2024-01-19T00:10:41.718Z,78.37
2024-01-19T00:13:10.610Z,78.54
2024-01-19T00:15:42.338Z,78.36
2024-01-19T00:18:12.305Z,78.15
2024-01-19T00:20:40.191Z,78.01
2024-01-19T00:23:10.061Z,78.03
2024-01-19T00:25:37.640Z,78.22
2024-01-19T00:28:05.208Z,78.21
2024-01-19T00:30:33.974Z,78.00
2024-01-19T00:33:01.745Z,77.81
2024-01-19T00:35:29.995Z,77.75
2024-01-19T00:37:59.041Z,77.53
2024-01-19T00:40:26.586Z,77.46
2024-01-19T00:42:54.228Z,77.64
2024-01-19T00:45:23.022Z,77.57
2024-01-19T00:47:50.752Z,77.72
2024-01-19T00:50:18.485Z,77.71
2024-01-19T00:52:47.433Z,77.42
2024-01-19T00:55:15.108Z,77.43
2024-01-19T00:57:42.658Z,77.55
2024-01-19T01:00:11.565Z,77.34
2024-01-19T01:02:39.145Z,77.38
2024-01-19T01:05:06.914Z,77.24
2024-01-19T01:07:35.852Z,77.38
2024-01-19T01:10:03.417Z,77.28
2024-01-19T01:12:31.073Z,77.30
2024-01-19T01:15:00.437Z,77.22
2024-01-19T01:17:28.294Z,77.19
2024-01-19T01:19:58.266Z,77.26
2024-01-19T01:22:25.936Z,77.16
2024-01-19T01:24:53.491Z,77.04
2024-01-19T01:27:22.275Z,76.96
2024-01-19T01:29:49.967Z,76.92
2024-01-19T01:32:17.832Z,76.75
2024-01-19T01:34:46.838Z,76.63
2024-01-19T01:37:14.860Z,76.80
2024-01-19T01:39:42.518Z,76.68
2024-01-19T01:42:11.320Z,76.63
2024-01-19T01:44:38.908Z,76.67
2024-01-19T01:47:06.634Z,76.80
2024-01-19T01:49:35.581Z,76.83
2024-01-19T01:52:03.313Z,76.79
2024-01-19T01:54:31.199Z,76.69
2024-01-19T01:57:00.157Z,76.48
2024-01-19T01:59:27.727Z,76.48
2024-01-19T02:01:55.376Z,76.38
2024-01-19T02:04:24.161Z,76.28
2024-01-19T02:06:51.987Z,76.32
2024-01-19T02:09:19.714Z,76.53
2024-01-19T02:11:48.737Z,76.60
2024-01-19T02:14:16.394Z,76.63
2024-01-19T02:16:44.418Z,76.69
2024-01-19T02:19:13.517Z,76.71
2024-01-19T02:21:41.171Z,76.83
2024-01-19T02:24:08.836Z,76.64
2024-01-19T02:26:37.643Z,76.71
2024-01-19T02:29:07.877Z,76.85
2024-01-19T02:31:36.746Z,77.10
2024-01-19T02:34:04.396Z,77.15
2024-01-19T02:36:31.962Z,76.83
2024-01-19T02:39:00.870Z,76.79
2024-01-19T02:41:28.428Z,76.70
2024-01-19T02:43:56.064Z,76.70
2024-01-19T02:46:24.853Z,76.77
2024-01-19T02:48:52.639Z,76.78
2024-01-19T02:51:20.290Z,76.50
2024-01-19T02:53:49.328Z,76.21
2024-01-19T02:56:17.062Z,75.88
2024-01-19T02:58:44.892Z,75.75
2024-01-19T03:01:13.785Z,75.52
2024-01-19T03:03:41.347Z,75.43
2024-01-19T03:06:09.043Z,75.57
2024-01-19T03:08:38.212Z,75.44
2024-01-19T03:11:05.862Z,75.58
2024-01-19T03:13:33.422Z,75.63
2024-01-19T03:16:02.221Z,75.76
2024-01-19T03:18:30.322Z,75.75
2024-01-19T03:20:57.962Z,75.77
2024-01-19T03:23:27.074Z,75.69
2024-01-19T03:25:54.703Z,75.77
2024-01-19T03:28:22.066Z,75.98
2024-01-19T03:30:50.944Z,76.07
2024-01-19T03:33:18.658Z,76.16
2024-01-19T03:35:46.492Z,76.08
2024-01-19T03:38:15.364Z,76.14
2024-01-19T03:40:43.028Z,76.15
2024-01-19T03:43:10.892Z,76.10
2024-01-19T03:45:39.804Z,76.14
2024-01-19T03:48:07.394Z,76.14
2024-01-19T03:50:35.145Z,76.29
2024-01-19T03:53:03.986Z,76.36
2024-01-19T03:55:31.573Z,76.46
2024-01-19T03:57:59.121Z,76.54
2024-01-19T04:00:28.007Z,76.61
2024-01-19T04:02:55.736Z,76.60
2024-01-19T04:05:23.879Z,76.58
2024-01-19T04:07:52.828Z,76.58
2024-01-19T04:10:20.276Z,76.47
2024-01-19T04:12:47.858Z,76.47
2024-01-19T04:15:16.634Z,76.29
2024-01-19T04:17:44.354Z,76.15
2024-01-19T04:20:12.057Z,75.72
2024-01-19T04:22:40.943Z,75.70
2024-01-19T04:25:08.612Z,75.54
2024-01-19T04:27:36.509Z,75.41
2024-01-19T04:30:05.486Z,75.29
2024-01-19T04:32:33.142Z,75.09
2024-01-19T04:35:00.892Z,75.15
2024-01-19T04:37:29.677Z,75.22
2024-01-19T04:39:57.230Z,75.36
2024-01-19T04:42:24.799Z,75.47
2024-01-19T04:44:53.734Z,75.58
2024-01-19T04:47:21.743Z,75.59
2024-01-19T04:49:49.534Z,75.67
2024-01-19T04:52:18.316Z,75.63
2024-01-19T04:54:45.873Z,75.76
2024-01-19T04:57:13.532Z,75.63
2024-01-19T04:59:42.332Z,75.44
2024-01-19T05:02:09.980Z,75.18
2024-01-19T05:04:37.541Z,75.13
2024-01-19T05:07:06.735Z,74.74
2024-01-19T05:09:34.398Z,74.56
2024-01-19T05:12:01.961Z,74.04
2024-01-19T05:14:30.768Z,73.67
2024-01-19T05:16:58.297Z,73.50
2024-01-19T05:19:25.923Z,73.12
2024-01-19T05:21:54.750Z,72.97
2024-01-19T05:24:22.336Z,73.08
2024-01-19T05:26:49.906Z,73.34
2024-01-19T05:29:18.760Z,73.43
2024-01-19T05:31:46.435Z,73.35
2024-01-19T05:34:14.062Z,73.24
2024-01-19T05:36:43.080Z,73.23
2024-01-19T05:39:10.639Z,73.16
2024-01-19T05:41:38.049Z,73.01
2024-01-19T05:44:06.886Z,73.04
2024-01-19T05:46:34.545Z,73.13
2024-01-19T05:49:02.468Z,73.13
2024-01-19T05:51:31.405Z,73.14
2024-01-19T05:53:59.086Z,73.16
2024-01-19T05:56:26.758Z,73.26
2024-01-19T05:58:55.748Z,73.22
2024-01-19T06:01:23.399Z,73.18
2024-01-19T06:03:51.082Z,73.26
2024-01-19T06:06:20.078Z,73.16
2024-01-19T06:08:48.132Z,73.11
2024-01-19T06:11:15.770Z,73.28
2024-01-19T06:13:44.556Z,73.12
2024-01-19T06:16:12.263Z,73.30
2024-01-19T06:18:39.996Z,73.48
2024-01-19T06:21:08.894Z,73.61
2024-01-19T06:23:36.563Z,73.58
2024-01-19T06:26:04.104Z,73.59
2024-01-19T06:28:32.988Z,73.60
2024-01-19T06:31:00.871Z,73.46
2024-01-19T06:33:28.793Z,73.49
2024-01-19T06:35:57.805Z,73.37
2024-01-19T06:38:25.400Z,73.51
2024-01-19T06:40:53.067Z,73.43
2024-01-19T06:43:21.940Z,73.37
2024-01-19T06:45:49.504Z,73.42
2024-01-19T06:48:17.463Z,73.46
2024-01-19T06:50:46.572Z,73.45
2024-01-19T06:53:14.107Z,73.70
2024-01-19T06:55:41.982Z,73.59
2024-01-19T06:58:11.268Z,73.49
2024-01-19T07:00:38.952Z,73.56
2024-01-19T07:03:06.731Z,73.23
2024-01-19T07:05:35.920Z,73.12
2024-01-19T07:08:03.656Z,72.90
2024-01-19T07:10:31.424Z,72.76
2024-01-19T07:13:00.230Z,72.85
2024-01-19T07:15:28.081Z,72.82
2024-01-19T07:17:55.806Z,72.74
2024-01-19T07:20:24.896Z,72.65
2024-01-19T07:22:52.616Z,72.47
2024-01-19T07:25:20.382Z,72.30
2024-01-19T07:27:49.358Z,72.16
2024-01-19T07:30:16.993Z,71.98
2024-01-19T07:32:55.752Z,71.88
2024-01-19T07:35:33.759Z,71.72
2024-01-19T07:38:01.611Z,71.69
2024-01-19T07:40:29.158Z,71.62
2024-01-19T07:42:58.065Z,71.47
2024-01-19T07:45:25.614Z,71.34
2024-01-19T07:47:53.359Z,71.20
2024-01-19T07:50:22.414Z,71.13
2024-01-19T07:52:50.028Z,71.00
2024-01-19T07:55:17.767Z,70.75
2024-01-19T07:57:47.137Z,70.52
2024-01-19T08:00:14.754Z,70.43
2024-01-19T08:02:42.415Z,70.42
2024-01-19T08:05:11.409Z,70.31
2024-01-19T08:07:39.185Z,70.26
2024-01-19T08:10:06.850Z,70.35
2024-01-19T08:12:35.720Z,70.14
2024-01-19T08:15:03.432Z,70.06
2024-01-19T08:17:31.635Z,70.12
2024-01-19T08:20:00.557Z,70.01
2024-01-19T08:22:28.111Z,69.96
2024-01-19T08:24:55.670Z,69.76
2024-01-19T08:27:24.668Z,69.60
2024-01-19T08:29:52.413Z,69.49
2024-01-19T08:32:20.311Z,69.33
2024-01-19T08:34:49.329Z,69.18
2024-01-19T08:37:16.855Z,69.00
2024-01-19T08:39:44.507Z,68.66
2024-01-19T08:42:13.303Z,68.67
2024-01-19T08:44:40.992Z,68.71
2024-01-19T08:47:08.512Z,68.84
2024-01-19T08:49:37.471Z,68.75
2024-01-19T08:52:05.176Z,68.83
2024-01-19T08:54:32.831Z,68.81
2024-01-19T08:57:03.772Z,68.77
2024-01-19T08:59:33.004Z,68.64
2024-01-19T09:02:01.964Z,68.68
2024-01-19T09:04:29.708Z,68.60
2024-01-19T09:06:59.254Z,68.16
2024-01-19T09:09:29.033Z,67.80
2024-01-19T09:11:56.827Z,68.25
2024-01-19T09:14:24.467Z,68.30
2024-01-19T09:16:53.258Z,68.05
2024-01-19T09:19:20.922Z,68.11
2024-01-19T09:21:48.575Z,68.04
2024-01-19T09:24:17.397Z,67.87
2024-01-19T09:26:44.927Z,67.66
2024-01-19T09:29:12.585Z,66.61
2024-01-19T09:31:41.473Z,66.42
2024-01-19T09:34:09.180Z,66.55
2024-01-19T09:36:36.694Z,66.82
2024-01-19T09:39:06.040Z,66.54
2024-01-19T09:41:33.789Z,66.51
2024-01-19T09:44:03.572Z,66.67
2024-01-19T09:46:31.242Z,66.19
2024-01-19T09:48:59.034Z,65.97
2024-01-19T09:51:27.986Z,66.08
2024-01-19T09:53:55.576Z,66.32
2024-01-19T09:56:23.207Z,65.92
2024-01-19T09:58:52.306Z,65.78
2024-01-19T10:01:19.983Z,65.88
2024-01-19T10:03:47.634Z,66.10
2024-01-19T10:06:16.721Z,65.94
2024-01-19T10:08:44.392Z,65.45
2024-01-19T10:11:12.053Z,65.16
2024-01-19T10:13:41.462Z,64.35
2024-01-19T10:16:09.318Z,64.05
2024-01-19T10:18:39.421Z,64.37
2024-01-19T10:21:07.547Z,64.09
2024-01-19T10:23:35.400Z,64.42
2024-01-19T10:26:04.156Z,64.60
2024-01-19T10:28:31.523Z,64.40
2024-01-19T10:30:59.174Z,63.89
2024-01-19T10:33:28.117Z,63.83
2024-01-19T10:35:55.958Z,64.30
2024-01-19T10:38:23.382Z,64.12
2024-01-19T10:40:52.277Z,64.35
2024-01-19T10:43:19.838Z,64.42
2024-01-19T10:45:47.803Z,64.26
2024-01-19T10:48:16.916Z,63.67
2024-01-19T10:50:44.578Z,63.49
2024-01-19T10:53:12.223Z,63.95
2024-01-19T10:55:41.019Z,64.11
2024-01-19T10:58:08.665Z,64.24
2024-01-19T11:00:36.239Z,63.93
2024-01-19T11:03:05.624Z,63.60
2024-01-19T11:05:33.664Z,63.58
2024-01-19T11:08:03.918Z,63.80
2024-01-19T11:10:31.692Z,63.71
2024-01-19T11:12:59.361Z,63.78
2024-01-19T11:15:28.251Z,64.23
2024-01-19T11:17:56.010Z,64.28
2024-01-19T11:20:23.719Z,64.01
2024-01-19T11:22:52.676Z,64.08
2024-01-19T11:25:20.249Z,64.00
2024-01-19T11:27:47.883Z,63.99
2024-01-19T11:30:17.074Z,64.06
2024-01-19T11:32:44.790Z,64.02
2024-01-19T11:35:12.398Z,63.86
2024-01-19T11:37:41.290Z,63.84
2024-01-19T11:40:08.976Z,64.27
2024-01-19T11:42:36.614Z,64.44
2024-01-19T11:45:05.434Z,64.61
2024-01-19T11:47:33.247Z,64.53
2024-01-19T11:50:01.441Z,64.56
2024-01-19T11:52:30.331Z,64.84
2024-01-19T11:54:58.009Z,64.95
2024-01-19T11:57:25.584Z,65.06
2024-01-19T11:59:54.579Z,64.99
2024-01-19T12:02:22.320Z,65.08
2024-01-19T12:04:50.134Z,65.16
2024-01-19T12:07:19.370Z,64.80
2024-01-19T12:09:47.543Z,64.77
2024-01-19T12:12:15.239Z,64.86
2024-01-19T12:14:44.240Z,64.58
2024-01-19T12:17:12.166Z,64.26
2024-01-19T12:19:39.882Z,64.35
2024-01-19T12:22:08.727Z,64.60
2024-01-19T12:24:36.492Z,64.42
2024-01-19T12:27:04.151Z,64.68
2024-01-19T12:29:33.037Z,64.84
2024-01-19T12:32:00.934Z,64.89
2024-01-19T12:34:28.587Z,65.17
2024-01-19T12:36:57.455Z,65.17
2024-01-19T12:39:25.275Z,64.95
2024-01-19T12:41:52.886Z,64.96
2024-01-19T12:44:21.888Z,64.89
2024-01-19T12:46:49.859Z,64.93
2024-01-19T12:49:17.696Z,64.99
2024-01-19T12:51:47.002Z,64.82
2024-01-19T12:54:14.568Z,64.95
2024-01-19T12:56:42.221Z,65.12
2024-01-19T12:59:11.041Z,65.14
2024-01-19T13:01:38.629Z,65.17
2024-01-19T13:04:06.373Z,65.42
2024-01-19T13:06:35.325Z,65.46
2024-01-19T13:09:02.882Z,65.39
2024-01-19T13:11:30.858Z,65.54
2024-01-19T13:13:59.666Z,65.62
2024-01-19T13:16:27.349Z,65.75
2024-01-19T13:18:55.051Z,65.92
2024-01-19T13:21:24.178Z,65.76
2024-01-19T13:23:51.724Z,65.78
2024-01-19T13:26:19.512Z,65.69
2024-01-19T13:28:48.514Z,65.84
2024-01-19T13:31:16.402Z,65.75
2024-01-19T13:33:44.566Z,65.87
2024-01-19T13:36:13.408Z,65.85
2024-01-19T13:38:40.966Z,65.93
2024-01-19T13:41:08.729Z,65.96
2024-01-19T13:43:37.767Z,66.12
2024-01-19T13:46:05.539Z,66.10
2024-01-19T13:48:33.013Z,66.07
2024-01-19T13:51:02.104Z,65.87
2024-01-19T13:53:29.603Z,65.82
2024-01-19T13:55:57.592Z,65.69
2024-01-19T13:58:26.356Z,65.60
2024-01-19T14:00:54.103Z,65.36
2024-01-19T14:03:21.817Z,65.24
2024-01-19T14:05:50.697Z,65.23
2024-01-19T14:08:18.410Z,65.28
2024-01-19T14:10:46.167Z,65.26
2024-01-19T14:13:15.213Z,65.24
2024-01-19T14:15:49.213Z,65.19
2024-01-19T14:18:20.970Z,65.01
2024-01-19T14:20:48.560Z,64.80
2024-01-19T14:23:16.531Z,64.81
2024-01-19T14:25:45.401Z,64.85
2024-01-19T14:28:13.059Z,64.82
2024-01-19T14:30:40.708Z,64.57
2024-01-19T14:33:09.560Z,64.57
2024-01-19T14:35:37.442Z,64.55
2024-01-19T14:38:05.281Z,64.69
2024-01-19T14:40:34.182Z,64.84
2024-01-19T14:43:01.778Z,64.67
2024-01-19T14:45:29.673Z,64.79
2024-01-19T14:47:58.451Z,64.65
2024-01-19T14:50:27.998Z,64.46
2024-01-19T14:52:57.901Z,64.31
2024-01-19T14:55:25.838Z,64.07
2024-01-19T14:57:55.634Z,63.94
2024-01-19T15:00:23.285Z,63.51
2024-01-19T15:02:50.860Z,63.54
2024-01-19T15:05:20.050Z,63.47
2024-01-19T15:07:47.828Z,63.43
2024-01-19T15:10:15.576Z,63.30
2024-01-19T15:12:44.484Z,63.64
2024-01-19T15:15:12.370Z,63.87
2024-01-19T15:17:40.251Z,63.91
2024-01-19T15:20:09.255Z,64.29
2024-01-19T15:22:36.901Z,64.25
2024-01-19T15:25:04.616Z,64.28
2024-01-19T15:27:33.807Z,64.44
2024-01-19T15:30:01.375Z,64.67
2024-01-19T15:32:29.049Z,64.72
2024-01-19T15:34:58.189Z,64.59
2024-01-19T15:37:25.898Z,64.53
2024-01-19T15:39:53.552Z,64.40
2024-01-19T15:42:22.449Z,64.39
2024-01-19T15:44:50.018Z,64.21
2024-01-19T15:47:17.915Z,64.41
2024-01-19T15:49:46.798Z,64.42
2024-01-19T15:52:14.554Z,64.45
2024-01-19T15:54:42.195Z,64.50
2024-01-19T15:57:10.969Z,64.43
2024-01-19T15:59:38.540Z,64.40
2024-01-19T16:02:06.131Z,64.39
2024-01-19T16:04:34.989Z,64.39
2024-01-19T16:07:03.059Z,64.28
2024-01-19T16:09:30.716Z,64.39
2024-01-19T16:11:59.521Z,64.50
2024-01-19T16:14:27.064Z,64.61
2024-01-19T16:16:54.866Z,64.44
2024-01-19T16:19:23.842Z,64.50
2024-01-19T16:21:51.491Z,64.51
2024-01-19T16:24:19.048Z,64.56
2024-01-19T16:26:47.937Z,64.82
2024-01-19T16:29:15.683Z,65.02
2024-01-19T16:31:43.638Z,65.20
2024-01-19T16:34:12.552Z,65.41
2024-01-19T16:36:40.403Z,65.52
2024-01-19T16:39:08.084Z,65.59
2024-01-19T16:41:36.884Z,65.82
2024-01-19T16:44:04.783Z,65.98
2024-01-19T16:46:32.721Z,65.84
2024-01-19T16:49:02.152Z,65.96
2024-01-19T16:51:29.871Z,65.94
2024-01-19T16:53:59.794Z,66.01
2024-01-19T16:56:27.344Z,65.97
2024-01-19T16:58:55.021Z,66.14
2024-01-19T17:01:23.889Z,66.20
2024-01-19T17:03:51.532Z,66.16
2024-01-19T17:06:19.445Z,66.11
2024-01-19T17:08:48.834Z,66.01
2024-01-19T17:11:16.653Z,65.94
2024-01-19T17:13:44.362Z,66.18
2024-01-19T17:16:16.820Z,66.32
2024-01-19T17:18:49.459Z,66.15
2024-01-19T17:21:17.060Z,66.17
2024-01-19T17:23:44.726Z,66.42
2024-01-19T17:26:13.778Z,66.60
2024-01-19T17:28:41.627Z,66.57
2024-01-19T17:31:09.962Z,66.79
2024-01-19T17:33:41.357Z,66.78
2024-01-19T17:36:18.904Z,66.84
2024-01-19T17:38:46.573Z,66.73
2024-01-19T17:41:14.246Z,66.66
2024-01-19T17:43:43.252Z,66.65
2024-01-19T17:46:10.885Z,66.87
2024-01-19T17:48:38.800Z,66.61
2024-01-19T17:51:07.747Z,66.58
2024-01-19T17:53:35.306Z,66.38
2024-01-19T17:56:03.035Z,66.31
2024-01-19T17:58:31.679Z,66.47
2024-01-19T18:00:59.279Z,66.54
2024-01-19T18:03:26.871Z,66.46
2024-01-19T18:05:55.805Z,66.36
2024-01-19T18:08:23.436Z,66.40
2024-01-19T18:10:51.098Z,66.53
2024-01-19T18:13:20.493Z,66.50
2024-01-19T18:15:48.604Z,65.98
2024-01-19T18:18:27.780Z,66.05
2024-01-19T18:21:03.980Z,66.18
2024-01-19T18:23:32.253Z,66.29
2024-01-19T18:26:02.056Z,66.02
2024-01-19T18:28:29.599Z,65.72
2024-01-19T18:30:57.360Z,65.78
2024-01-19T18:33:26.327Z,65.86
2024-01-19T18:35:54.241Z,65.70
2024-01-19T18:38:21.944Z,65.90
2024-01-19T18:40:51.238Z,65.77
2024-01-19T18:43:18.848Z,65.70
2024-01-19T18:45:46.508Z,65.71
2024-01-19T18:48:15.457Z,65.69
2024-01-19T18:50:43.160Z,65.52
2024-01-19T18:53:11.431Z,65.56
2024-01-19T18:55:40.676Z,65.63
2024-01-19T18:58:08.602Z,66.12
2024-01-19T19:00:37.260Z,65.98
2024-01-19T19:03:07.107Z,65.96
2024-01-19T19:05:36.364Z,66.42
2024-01-19T19:08:06.396Z,66.21
2024-01-19T19:10:34.359Z,66.30
2024-01-19T19:13:02.385Z,66.33
2024-01-19T19:15:31.345Z,66.40
2024-01-19T19:17:58.912Z,66.31
2024-01-19T19:20:26.698Z,66.18
2024-01-19T19:22:56.033Z,66.18
2024-01-19T19:25:23.828Z,66.66
2024-01-19T19:27:53.750Z,66.64
2024-01-19T19:30:21.311Z,66.38
2024-01-19T19:32:49.005Z,66.59
2024-01-19T19:35:18.057Z,66.72
2024-01-19T19:37:45.847Z,66.89
2024-01-19T19:40:13.857Z,67.10
2024-01-19T19:42:43.110Z,67.12
2024-01-19T19:45:10.769Z,67.05
2024-01-19T19:47:38.360Z,67.04
2024-01-19T19:50:07.396Z,67.24
2024-01-19T19:52:35.231Z,67.42
2024-01-19T19:55:02.941Z,67.47
2024-01-19T19:57:32.135Z,67.54
2024-01-19T20:00:00.198Z,67.54
2024-01-19T20:02:28.085Z,67.42
2024-01-19T20:04:57.120Z,67.32
2024-01-19T20:07:24.837Z,67.41
2024-01-19T20:09:52.537Z,67.26
2024-01-19T20:12:21.482Z,67.26
2024-01-19T20:14:49.249Z,67.15
2024-01-19T20:17:16.952Z,66.96
2024-01-19T20:19:46.357Z,66.60
2024-01-19T20:22:14.280Z,66.59
2024-01-19T20:24:44.208Z,66.88
2024-01-19T20:27:12.079Z,66.99
2024-01-19T20:29:40.021Z,67.09
2024-01-19T20:32:09.271Z,67.18
2024-01-19T20:34:37.374Z,67.14
2024-01-19T20:37:05.265Z,66.96
2024-01-19T20:39:34.078Z,67.14
2024-01-19T20:42:02.123Z,67.23
2024-01-19T20:44:29.686Z,67.35
2024-01-19T20:46:58.651Z,67.28
2024-01-19T20:49:26.345Z,67.31
2024-01-19T20:51:54.026Z,67.42
2024-01-19T20:54:22.892Z,67.39
2024-01-19T20:56:53.094Z,67.42
2024-01-19T20:59:23.533Z,67.63
2024-01-19T21:01:51.286Z,67.64
2024-01-19T21:04:21.372Z,67.64
2024-01-19T21:06:49.316Z,67.55
2024-01-19T21:09:17.267Z,67.44
2024-01-19T21:11:46.241Z,67.19
2024-01-19T21:14:13.985Z,67.07
2024-01-19T21:16:42.023Z,66.81
2024-01-19T21:19:11.111Z,67.04
2024-01-19T21:21:39.478Z,66.95
2024-01-19T21:24:09.780Z,67.04
2024-01-19T21:26:37.448Z,67.04
2024-01-19T21:29:05.029Z,67.12
2024-01-19T21:31:33.898Z,67.02
2024-01-19T21:34:01.818Z,67.11
2024-01-19T21:36:29.539Z,67.12
2024-01-19T21:38:58.717Z,67.12
2024-01-19T21:41:26.312Z,67.03
2024-01-19T21:43:54.509Z,67.29
2024-01-19T21:46:23.444Z,67.27
2024-01-19T21:48:51.155Z,67.35
2024-01-19T21:51:18.999Z,67.14
2024-01-19T21:53:48.161Z,67.24
2024-01-19T21:56:16.100Z,67.31
2024-01-19T21:58:44.095Z,67.33
2024-01-19T22:01:13.985Z,67.32
2024-01-19T22:03:42.184Z,67.31
2024-01-19T22:06:09.821Z,67.29
2024-01-19T22:08:38.632Z,67.39
2024-01-19T22:11:06.646Z,67.64
2024-01-19T22:13:34.445Z,67.65
2024-01-19T22:16:03.369Z,67.70
2024-01-19T22:18:30.851Z,67.80
2024-01-19T22:20:58.479Z,67.82
2024-01-19T22:23:27.387Z,67.66
2024-01-19T22:25:54.979Z,67.72
2024-01-19T22:28:22.597Z,67.49
2024-01-19T22:30:52.219Z,67.44
2024-01-19T22:33:19.998Z,67.60
2024-01-19T22:35:51.176Z,67.37
2024-01-19T22:38:21.680Z,67.44
2024-01-19T22:40:50.752Z,67.41
2024-01-19T22:43:18.515Z,67.15
2024-01-19T22:45:49.091Z,67.30
2024-01-19T22:48:18.432Z,67.26
2024-01-19T22:50:46.303Z,67.16
2024-01-19T22:53:14.113Z,67.10
2024-01-19T22:55:43.170Z,67.04
2024-01-19T22:58:11.095Z,67.21
2024-01-19T23:00:39.228Z,66.86
2024-01-19T23:03:08.081Z,66.98
2024-01-19T23:05:35.971Z,67.14
2024-01-19T23:08:03.545Z,67.32
2024-01-19T23:10:32.400Z,67.48
2024-01-19T23:12:59.987Z,67.41
2024-01-19T23:15:28.440Z,67.25
2024-01-19T23:17:57.400Z,67.16
2024-01-19T23:20:25.404Z,67.06
2024-01-19T23:22:53.172Z,67.21
2024-01-19T23:25:27.364Z,67.10
2024-01-19T23:28:02.208Z,67.13
2024-01-19T23:30:30.080Z,67.06
2024-01-19T23:32:57.668Z,66.89
2024-01-19T23:35:26.840Z,66.85
2024-01-19T23:37:54.404Z,66.70
2024-01-19T23:40:22.175Z,66.64
2024-01-19T23:42:51.353Z,66.76
2024-01-19T23:45:19.114Z,66.90
2024-01-19T23:47:46.915Z,66.42
2024-01-19T23:50:15.926Z,66.39
2024-01-19T23:52:43.770Z,66.34
2024-01-19T23:55:11.326Z,66.41
2024-01-19T23:57:40.402Z,66.15
